createdAt,value
2023-01-13T00:01:59.561Z,994.90
2023-01-13T00:06:59.487Z,995.09
2023-01-13T00:11:59.425Z,994.90
2023-01-13T00:16:59.362Z,994.89
2023-01-13T00:21:59.319Z,994.85
2023-01-13T00:26:59.225Z,994.93
2023-01-13T00:31:59.157Z,994.86
2023-01-13T00:36:59.091Z,994.88
2023-01-13T00:41:59.045Z,994.78
2023-01-13T00:46:58.953Z,994.91
2023-01-13T00:51:58.921Z,994.84
2023-01-13T00:56:58.834Z,994.78
2023-01-13T01:01:58.881Z,994.84
2023-01-13T01:06:58.749Z,994.85
2023-01-13T01:11:58.648Z,994.83
2023-01-13T01:16:58.575Z,994.87
2023-01-13T01:21:58.521Z,994.88
2023-01-13T01:26:58.459Z,994.77
2023-01-13T01:31:58.401Z,994.79
2023-01-13T01:36:58.307Z,994.77
2023-01-13T01:41:58.246Z,994.73
2023-01-13T01:46:58.295Z,994.82
2023-01-13T01:51:58.163Z,994.81
2023-01-13T01:56:58.045Z,994.80
2023-01-13T02:01:58.085Z,994.58
2023-01-13T02:06:57.916Z,994.70
2023-01-13T02:11:57.855Z,994.61
2023-01-13T02:16:57.821Z,994.56
2023-01-13T02:21:57.719Z,994.54
2023-01-13T02:26:57.669Z,994.39
2023-01-13T02:31:57.656Z,994.30
2023-01-13T02:36:57.524Z,994.24
2023-01-13T02:41:57.457Z,994.13
2023-01-13T02:46:57.402Z,994.14
2023-01-13T02:51:57.317Z,994.04
2023-01-13T02:56:57.255Z,994.05
2023-01-13T03:01:57.394Z,994.00
2023-01-13T03:06:57.028Z,993.99
2023-01-13T03:11:56.988Z,994.04
2023-01-13T03:16:56.902Z,994.10
2023-01-13T03:21:56.851Z,994.08
2023-01-13T03:26:56.766Z,994.13
2023-01-13T03:31:56.700Z,994.07
2023-01-13T03:36:56.629Z,994.00
2023-01-13T03:41:56.565Z,993.98
2023-01-13T03:46:56.522Z,994.03
2023-01-13T03:51:56.423Z,994.01
2023-01-13T03:56:56.369Z,994.06
2023-01-13T04:01:56.501Z,993.98
2023-01-13T04:06:56.262Z,993.91
2023-01-13T04:11:56.162Z,994.01
2023-01-13T04:16:56.111Z,994.03
2023-01-13T04:21:56.024Z,993.97
2023-01-13T04:26:55.969Z,993.96
2023-01-13T04:31:55.904Z,993.96
2023-01-13T04:36:55.831Z,994.00
2023-01-13T04:41:55.816Z,994.02
2023-01-13T04:46:55.697Z,993.83
2023-01-13T04:51:55.648Z,993.85
2023-01-13T04:56:55.574Z,993.92
2023-01-13T05:01:55.586Z,993.83
2023-01-13T05:06:55.435Z,993.91
2023-01-13T05:11:55.383Z,993.88
2023-01-13T05:16:55.309Z,993.97
2023-01-13T05:21:55.270Z,994.07
2023-01-13T05:26:55.208Z,993.97
2023-01-13T05:31:55.129Z,993.95
2023-01-13T05:36:55.072Z,993.92
2023-01-13T05:41:54.982Z,994.04
2023-01-13T05:46:54.984Z,994.07
2023-01-13T05:51:54.869Z,994.12
2023-01-13T05:56:54.778Z,994.05
2023-01-13T06:01:54.745Z,994.00
2023-01-13T06:06:54.652Z,994.05
2023-01-13T06:11:54.599Z,993.97
2023-01-13T06:16:54.519Z,994.07
2023-01-13T06:21:54.471Z,994.10
2023-01-13T06:26:54.415Z,994.03
2023-01-13T06:31:54.407Z,994.10
2023-01-13T06:36:54.281Z,994.09
2023-01-13T06:41:54.211Z,994.04
2023-01-13T06:46:54.192Z,994.07
2023-01-13T06:51:54.052Z,994.10
2023-01-13T06:56:54.004Z,994.15
2023-01-13T07:01:54.102Z,994.12
2023-01-13T07:06:53.878Z,994.10
2023-01-13T07:11:53.817Z,994.10
2023-01-13T07:16:53.721Z,994.16
2023-01-13T07:21:53.637Z,994.21
2023-01-13T07:26:53.617Z,994.21
2023-01-13T07:31:53.587Z,994.16
2023-01-13T07:36:53.461Z,994.06
2023-01-13T07:41:53.436Z,994.09
2023-01-13T07:46:53.310Z,994.03
2023-01-13T07:51:53.292Z,994.16
2023-01-13T07:56:53.178Z,994.15
2023-01-13T08:01:53.306Z,994.07
2023-01-13T08:07:00.051Z,994.16
2023-01-13T08:11:52.991Z,994.15
2023-01-13T08:16:52.941Z,994.05
2023-01-13T08:21:52.869Z,994.11
2023-01-13T08:26:52.801Z,994.10
2023-01-13T08:31:52.761Z,994.13
2023-01-13T08:36:52.679Z,994.13
2023-01-13T08:41:52.585Z,994.04
2023-01-13T08:46:52.564Z,994.10
2023-01-13T08:51:52.482Z,994.03
2023-01-13T08:56:52.514Z,993.97
2023-01-13T09:01:52.452Z,994.06
2023-01-13T09:06:52.307Z,994.10
2023-01-13T09:11:52.199Z,994.28
2023-01-13T09:16:52.160Z,994.39
2023-01-13T09:21:52.077Z,994.42
2023-01-13T09:26:51.998Z,995.31
2023-01-13T09:31:51.938Z,995.50
2023-01-13T09:36:51.868Z,995.61
2023-01-13T09:41:51.807Z,995.56
2023-01-13T09:46:51.774Z,995.71
2023-01-13T09:51:51.725Z,995.62
2023-01-13T09:56:51.585Z,995.84
2023-01-13T10:01:51.538Z,995.79
2023-01-13T10:06:51.484Z,995.86
2023-01-13T10:11:51.421Z,995.75
2023-01-13T10:16:51.392Z,995.76
2023-01-13T10:21:51.364Z,995.71
2023-01-13T10:26:51.220Z,995.59
2023-01-13T10:31:51.148Z,995.55
2023-01-13T10:36:51.116Z,995.39
2023-01-13T10:41:51.036Z,995.22
2023-01-13T10:46:51.091Z,995.12
2023-01-13T10:51:51.023Z,995.17
2023-01-13T10:56:50.826Z,995.18
2023-01-13T11:01:53.146Z,995.09
2023-01-13T11:06:50.719Z,994.94
2023-01-13T11:11:50.625Z,995.10
2023-01-13T11:16:53.753Z,995.30
2023-01-13T11:21:50.488Z,995.40
2023-01-13T11:26:50.463Z,995.39
2023-01-13T11:31:50.378Z,995.38
2023-01-13T11:36:50.342Z,995.37
2023-01-13T11:41:50.247Z,995.40
2023-01-13T11:46:50.208Z,995.46
2023-01-13T11:51:50.095Z,995.47
2023-01-13T11:56:50.078Z,995.43
2023-01-13T12:01:50.049Z,995.44
2023-01-13T12:06:49.896Z,995.10
2023-01-13T12:11:49.861Z,994.99
2023-01-13T12:16:49.862Z,995.21
2023-01-13T12:21:49.741Z,995.17
2023-01-13T12:26:49.645Z,995.18
2023-01-13T12:31:49.609Z,995.23
2023-01-13T12:36:49.519Z,995.10
2023-01-13T12:41:49.452Z,995.09
2023-01-13T12:46:49.512Z,995.06
2023-01-13T12:51:49.324Z,995.15
2023-01-13T12:56:49.240Z,995.18
2023-01-13T13:01:49.306Z,995.30
2023-01-13T13:06:49.110Z,995.28
2023-01-13T13:11:49.047Z,995.31
2023-01-13T13:16:49.064Z,995.32
2023-01-13T13:21:48.906Z,995.29
2023-01-13T13:26:48.866Z,995.33
2023-01-13T13:31:48.785Z,995.50
2023-01-13T13:36:49.459Z,995.46
2023-01-13T13:41:48.656Z,995.42
2023-01-13T13:46:48.627Z,995.43
2023-01-13T13:51:48.543Z,995.43
2023-01-13T13:56:48.471Z,995.47
2023-01-13T14:01:48.506Z,995.55
2023-01-13T14:06:48.579Z,995.42
2023-01-13T14:11:48.220Z,995.33
2023-01-13T14:16:48.143Z,995.39
2023-01-13T14:21:48.082Z,995.54
2023-01-13T14:26:48.033Z,995.55
2023-01-13T14:31:48.089Z,995.68
2023-01-13T14:36:47.962Z,995.65
2023-01-13T14:41:47.809Z,995.78
2023-01-13T14:46:47.911Z,995.89
2023-01-13T14:51:47.786Z,996.01
2023-01-13T14:56:47.649Z,996.08
2023-01-13T15:01:47.576Z,996.18
2023-01-13T15:06:47.449Z,996.16
2023-01-13T15:11:47.370Z,996.20
2023-01-13T15:16:54.284Z,996.50
2023-01-13T15:21:47.223Z,996.81
2023-01-13T15:26:47.165Z,996.88
2023-01-13T15:31:47.103Z,996.76
2023-01-13T15:36:47.764Z,996.88
2023-01-13T15:41:46.969Z,996.72
2023-01-13T15:46:46.952Z,996.84
2023-01-13T15:51:46.831Z,996.83
2023-01-13T15:56:46.825Z,996.78
2023-01-13T16:01:46.725Z,996.93
2023-01-13T16:06:46.643Z,996.89
2023-01-13T16:11:46.589Z,996.91
2023-01-13T16:16:46.518Z,996.85
2023-01-13T16:21:46.491Z,996.82
2023-01-13T16:26:46.476Z,996.95
2023-01-13T16:31:46.465Z,996.87
2023-01-13T16:36:46.300Z,996.90
2023-01-13T16:41:46.239Z,997.10
2023-01-13T16:46:46.244Z,997.09
2023-01-13T16:51:46.193Z,997.18
2023-01-13T16:56:46.080Z,997.25
2023-01-13T17:01:46.146Z,997.24
2023-01-13T17:06:45.941Z,997.37
2023-01-13T17:11:45.905Z,997.51
2023-01-13T17:16:46.305Z,997.60
2023-01-13T17:21:45.824Z,997.69
2023-01-13T17:26:45.969Z,997.65
2023-01-13T17:31:46.716Z,997.76
2023-01-13T17:36:45.608Z,997.72
2023-01-13T17:41:45.813Z,997.65
2023-01-13T17:46:45.479Z,997.76
2023-01-13T17:51:45.397Z,997.93
2023-01-13T17:56:45.558Z,998.04
2023-01-13T18:01:45.394Z,998.06
2023-01-13T18:06:45.220Z,998.14
2023-01-13T18:11:47.089Z,998.24
2023-01-13T18:16:45.234Z,998.40
2023-01-13T18:21:45.312Z,998.34
2023-01-13T18:26:44.911Z,998.47
2023-01-13T18:31:44.860Z,998.38
2023-01-13T18:36:44.927Z,998.34
2023-01-13T18:41:44.743Z,998.38
2023-01-13T18:46:44.743Z,998.36
2023-01-13T18:51:44.740Z,998.31
2023-01-13T18:56:44.568Z,998.35
2023-01-13T19:01:44.578Z,998.41
2023-01-13T19:06:44.425Z,998.39
2023-01-13T19:11:46.170Z,998.55
2023-01-13T19:16:44.265Z,998.44
2023-01-13T19:21:44.245Z,998.58
2023-01-13T19:26:44.156Z,998.60
2023-01-13T19:31:44.075Z,998.58
2023-01-13T19:36:44.010Z,998.80
2023-01-13T19:41:44.045Z,998.83
2023-01-13T19:46:43.939Z,998.96
2023-01-13T19:51:44.770Z,998.98
2023-01-13T19:56:43.745Z,999.01
2023-01-13T20:01:43.776Z,999.07
2023-01-13T20:06:43.680Z,999.04
2023-01-13T20:11:43.709Z,999.14
2023-01-13T20:16:43.575Z,999.22
2023-01-13T20:21:43.476Z,999.31
2023-01-13T20:26:43.437Z,999.33
2023-01-13T20:31:43.500Z,999.48
2023-01-13T20:36:43.411Z,999.62
2023-01-13T20:41:43.394Z,999.70
2023-01-13T20:46:43.401Z,999.79
2023-01-13T20:51:43.329Z,999.64
2023-01-13T20:56:43.673Z,999.72
2023-01-13T21:01:43.112Z,999.77
2023-01-13T21:06:42.835Z,999.90
2023-01-13T21:11:42.770Z,1000.01
2023-01-13T21:16:42.795Z,999.90
2023-01-13T21:21:42.658Z,1000.00
2023-01-13T21:26:42.609Z,1000.12
2023-01-13T21:31:42.572Z,1000.07
2023-01-13T21:36:42.476Z,1000.19
2023-01-13T21:41:42.563Z,1000.29
2023-01-13T21:46:42.426Z,1000.38
2023-01-13T21:51:44.880Z,1000.52
2023-01-13T21:56:42.369Z,1000.58
2023-01-13T22:01:45.946Z,1000.51
2023-01-13T22:06:43.094Z,1000.49
2023-01-13T22:11:42.019Z,1000.44
2023-01-13T22:16:42.105Z,1000.61
2023-01-13T22:21:41.906Z,1000.69
2023-01-13T22:26:48.811Z,1000.67
2023-01-13T22:31:41.800Z,1000.70
2023-01-13T22:36:41.677Z,1000.66
2023-01-13T22:41:41.628Z,1000.73
2023-01-13T22:46:41.661Z,1000.72
2023-01-13T22:51:41.507Z,1000.72
2023-01-13T22:56:41.432Z,1000.86
2023-01-13T23:01:41.375Z,1000.88
2023-01-13T23:06:41.300Z,1000.88
2023-01-13T23:11:41.324Z,1001.06
2023-01-13T23:16:41.331Z,1001.02
2023-01-13T23:21:41.155Z,1001.02
2023-01-13T23:26:41.405Z,1001.06
2023-01-13T23:31:40.996Z,1000.96
2023-01-13T23:36:41.405Z,1001.17
2023-01-13T23:41:41.012Z,1001.15
2023-01-13T23:46:40.818Z,1001.28
2023-01-13T23:51:40.729Z,1001.26
2023-01-13T23:56:40.647Z,1001.22
